createdAt,value
2018-12-21T00:00:01.553Z,12.60
2018-12-21T00:01:01.562Z,12.00
2018-12-21T00:02:01.526Z,11.80
2018-12-21T00:03:01.523Z,12.40
2018-12-21T00:04:01.513Z,12.20
2018-12-21T00:05:01.518Z,11.80
2018-12-21T00:06:01.512Z,12.40
2018-12-21T00:07:01.469Z,12.70
2018-12-21T00:08:01.462Z,11.80
2018-12-21T00:09:01.452Z,11.90
2018-12-21T00:10:01.452Z,12.00
2018-12-21T00:11:01.462Z,11.00
2018-12-21T00:12:01.422Z,11.70
2018-12-21T00:13:01.408Z,11.50
2018-12-21T00:14:01.397Z,12.10
2018-12-21T00:15:01.382Z,12.80
2018-12-21T00:16:01.386Z,11.60
2018-12-21T00:17:01.384Z,12.10
2018-12-21T00:18:01.355Z,11.40
2018-12-21T00:19:01.348Z,12.60
2018-12-21T00:20:01.338Z,11.90
2018-12-21T00:21:01.324Z,11.50
2018-12-21T00:22:01.358Z,12.00
2018-12-21T00:23:01.308Z,12.10
2018-12-21T00:24:01.296Z,12.30
2018-12-21T00:25:01.288Z,11.90
2018-12-21T00:26:01.270Z,12.10
2018-12-21T00:27:01.283Z,12.10
2018-12-21T00:28:01.255Z,11.20
2018-12-21T00:29:01.249Z,12.80
2018-12-21T00:30:01.226Z,12.30
2018-12-21T00:31:01.218Z,11.60
2018-12-21T00:32:01.226Z,11.90
2018-12-21T00:33:01.199Z,10.90
2018-12-21T00:34:01.196Z,11.70
2018-12-21T00:35:01.173Z,11.40
2018-12-21T00:36:01.162Z,11.20
2018-12-21T00:37:01.181Z,11.90
2018-12-21T00:38:01.140Z,11.70
2018-12-21T00:39:01.135Z,11.70
2018-12-21T00:40:01.131Z,12.30
2018-12-21T00:41:01.138Z,12.40
2018-12-21T00:42:01.114Z,12.20
2018-12-21T00:43:01.087Z,11.90
2018-12-21T00:44:01.098Z,12.60
2018-12-21T00:45:01.072Z,11.30
2018-12-21T00:46:01.066Z,11.80
2018-12-21T00:47:01.091Z,12.30
2018-12-21T00:48:01.031Z,11.90
2018-12-21T00:49:01.022Z,12.50
2018-12-21T00:50:01.032Z,12.10
2018-12-21T00:51:01.012Z,12.20
2018-12-21T00:52:01.019Z,12.00
2018-12-21T00:53:00.986Z,11.40
2018-12-21T00:54:00.968Z,11.30
2018-12-21T00:55:00.965Z,12.00
2018-12-21T00:56:00.948Z,12.30
2018-12-21T00:57:00.960Z,11.80
2018-12-21T00:58:00.941Z,11.60
2018-12-21T00:59:00.920Z,12.50
2018-12-21T01:00:00.913Z,11.00
2018-12-21T01:01:00.908Z,11.60
2018-12-21T01:02:00.917Z,11.50
2018-12-21T01:03:00.894Z,12.00
2018-12-21T01:04:00.882Z,11.80
2018-12-21T01:05:00.856Z,12.30
2018-12-21T01:06:00.848Z,11.60
2018-12-21T01:07:00.859Z,11.90
2018-12-21T01:08:00.828Z,11.90
2018-12-21T01:09:00.838Z,11.80
2018-12-21T01:10:00.809Z,12.30
2018-12-21T01:11:00.788Z,12.00
2018-12-21T01:12:00.780Z,11.70
2018-12-21T01:13:00.794Z,11.60
2018-12-21T01:14:00.764Z,11.60
2018-12-21T01:15:00.763Z,12.10
2018-12-21T01:16:00.740Z,11.10
2018-12-21T01:17:00.728Z,11.00
2018-12-21T01:18:00.758Z,11.20
2018-12-21T01:19:00.716Z,11.60
2018-12-21T01:20:00.707Z,11.00
2018-12-21T01:21:00.706Z,11.50
2018-12-21T01:22:00.678Z,11.40
2018-12-21T01:23:00.680Z,10.60
2018-12-21T01:24:00.654Z,11.10
2018-12-21T01:25:00.642Z,11.20
2018-12-21T01:26:00.643Z,11.50
2018-12-21T01:27:00.649Z,10.80
2018-12-21T01:28:00.640Z,10.60
2018-12-21T01:29:00.600Z,11.00
2018-12-21T01:30:00.593Z,10.80
2018-12-21T01:31:00.583Z,11.60
2018-12-21T01:32:00.578Z,11.10
2018-12-21T01:33:00.588Z,10.90
2018-12-21T01:34:00.550Z,10.40
2018-12-21T01:35:00.536Z,10.20
2018-12-21T01:36:00.534Z,10.60
2018-12-21T01:37:00.514Z,10.40
2018-12-21T01:38:00.520Z,10.40
2018-12-21T01:39:00.535Z,10.60
2018-12-21T01:40:00.483Z,10.60
2018-12-21T01:41:00.470Z,10.40
2018-12-21T01:42:00.472Z,11.20
2018-12-21T01:43:00.483Z,10.30
2018-12-21T01:44:00.455Z,10.40
2018-12-21T01:45:00.428Z,11.00
2018-12-21T01:46:00.421Z,10.60
2018-12-21T01:47:00.408Z,10.90
2018-12-21T01:48:00.442Z,10.10
2018-12-21T01:49:00.393Z,10.50
2018-12-21T01:50:00.386Z,11.30
2018-12-21T01:51:00.364Z,10.60
2018-12-21T01:52:00.354Z,10.70
2018-12-21T01:53:00.342Z,10.20
2018-12-21T01:54:00.356Z,10.70
2018-12-21T01:55:00.326Z,10.30
2018-12-21T01:56:00.332Z,10.20
2018-12-21T01:57:00.314Z,11.00
2018-12-21T01:58:00.294Z,10.30
2018-12-21T01:59:00.348Z,10.60
2018-12-21T02:00:00.266Z,10.50
2018-12-21T02:01:00.272Z,10.80
2018-12-21T02:02:00.283Z,10.70
2018-12-21T02:03:00.236Z,9.80
2018-12-21T02:04:00.246Z,10.80
2018-12-21T02:05:00.219Z,9.80
2018-12-21T02:06:00.211Z,10.20
2018-12-21T02:07:00.202Z,10.30
2018-12-21T02:08:00.186Z,10.40
2018-12-21T02:09:00.292Z,9.90
2018-12-21T02:10:00.161Z,10.00
2018-12-21T02:11:00.150Z,9.70
2018-12-21T02:12:00.142Z,9.90
2018-12-21T02:13:00.144Z,8.80
2018-12-21T02:14:00.158Z,9.80
2018-12-21T02:15:00.113Z,9.90
2018-12-21T02:16:00.110Z,9.90
2018-12-21T02:17:00.091Z,9.00
2018-12-21T02:18:00.081Z,9.20
2018-12-21T02:19:00.082Z,9.20
2018-12-21T02:20:00.089Z,8.70
2018-12-21T02:21:00.049Z,9.30
2018-12-21T02:22:00.033Z,9.10
2018-12-21T02:23:00.029Z,8.60
2018-12-21T02:24:00.037Z,8.90
2018-12-21T02:25:00.031Z,8.10
2018-12-21T02:25:59.989Z,8.00
2018-12-21T02:26:59.980Z,8.70
2018-12-21T02:27:59.980Z,7.50
2018-12-21T02:28:59.961Z,8.30
2018-12-21T02:29:59.969Z,8.30
2018-12-21T02:30:59.955Z,7.80
2018-12-21T02:31:59.927Z,8.40
2018-12-21T02:32:59.919Z,8.10
2018-12-21T02:33:59.936Z,7.80
2018-12-21T02:34:59.923Z,8.40
2018-12-21T02:35:59.893Z,7.50
2018-12-21T02:36:59.873Z,7.80
2018-12-21T02:37:59.865Z,7.80
2018-12-21T02:38:59.863Z,8.00
2018-12-21T02:40:00.345Z,7.80
2018-12-21T02:40:59.842Z,7.50
2018-12-21T02:41:59.841Z,7.70
2018-12-21T02:42:59.816Z,7.20
2018-12-21T02:43:59.811Z,7.60
2018-12-21T02:44:59.817Z,8.00
2018-12-21T02:45:59.780Z,7.40
2018-12-21T02:46:59.770Z,7.60
2018-12-21T02:47:59.763Z,7.60
2018-12-21T02:48:59.749Z,7.50
2018-12-21T02:49:59.756Z,7.60
2018-12-21T02:50:59.737Z,6.50
2018-12-21T02:52:05.347Z,7.60
2018-12-21T02:53:00.727Z,7.80
2018-12-21T02:53:59.696Z,7.90
2018-12-21T02:54:59.703Z,7.30
2018-12-21T02:55:59.671Z,7.30
2018-12-21T02:56:59.698Z,7.10
2018-12-21T02:57:59.659Z,7.20
2018-12-21T02:58:59.644Z,7.60
2018-12-21T02:59:59.659Z,6.90
2018-12-21T03:00:59.617Z,7.00
2018-12-21T03:01:59.614Z,7.70
2018-12-21T03:02:59.595Z,6.70
2018-12-21T03:03:59.592Z,6.80
2018-12-21T03:04:59.610Z,6.70
2018-12-21T03:05:59.574Z,7.00
2018-12-21T03:06:59.554Z,6.90
2018-12-21T03:07:59.544Z,6.30
2018-12-21T03:08:59.534Z,6.70
2018-12-21T03:09:59.556Z,7.00
2018-12-21T03:10:59.528Z,5.60
2018-12-21T03:11:59.508Z,7.40
2018-12-21T03:12:59.495Z,7.70
2018-12-21T03:13:59.482Z,7.00
2018-12-21T03:14:59.506Z,7.40
2018-12-21T03:15:59.473Z,7.10
2018-12-21T03:16:59.463Z,6.90
2018-12-21T03:18:00.325Z,7.00
2018-12-21T03:18:59.424Z,7.40
2018-12-21T03:19:59.428Z,6.80
2018-12-21T03:20:59.428Z,6.90
2018-12-21T03:21:59.400Z,5.90
2018-12-21T03:22:59.394Z,7.50
2018-12-21T03:23:59.377Z,7.30
2018-12-21T03:24:59.366Z,7.70
2018-12-21T03:25:59.387Z,8.70
2018-12-21T03:26:59.358Z,7.70
2018-12-21T03:27:59.363Z,7.60
2018-12-21T03:28:59.322Z,8.30
2018-12-21T03:29:59.317Z,8.30
2018-12-21T03:30:59.335Z,7.90
2018-12-21T03:31:59.293Z,8.40
2018-12-21T03:32:59.291Z,8.70
2018-12-21T03:33:59.271Z,8.10
2018-12-21T03:34:59.265Z,7.70
2018-12-21T03:35:59.323Z,7.20
2018-12-21T03:36:59.234Z,8.40
2018-12-21T03:37:59.228Z,8.60
2018-12-21T03:38:59.218Z,8.10
2018-12-21T03:39:59.211Z,8.20
2018-12-21T03:40:59.216Z,9.20
2018-12-21T03:41:59.183Z,8.00
2018-12-21T03:42:59.176Z,8.30
2018-12-21T03:43:59.162Z,7.80
2018-12-21T03:44:59.168Z,8.00
2018-12-21T03:45:59.158Z,9.10
2018-12-21T03:46:59.142Z,8.60
2018-12-21T03:47:59.118Z,8.30
2018-12-21T03:48:59.113Z,8.60
2018-12-21T03:49:59.101Z,8.40
2018-12-21T03:50:59.119Z,8.80
2018-12-21T03:51:59.085Z,8.20
2018-12-21T03:52:59.069Z,8.50
2018-12-21T03:53:59.057Z,9.00
2018-12-21T03:54:59.077Z,8.30
2018-12-21T03:55:59.054Z,8.10
2018-12-21T03:56:59.048Z,7.40
2018-12-21T03:57:59.018Z,8.30
2018-12-21T03:58:59.002Z,8.40
2018-12-21T03:59:58.994Z,7.90
2018-12-21T04:00:58.983Z,8.20
2018-12-21T04:01:58.992Z,8.00
2018-12-21T04:02:59.022Z,8.10
2018-12-21T04:03:58.954Z,8.20
2018-12-21T04:04:58.940Z,8.10
2018-12-21T04:05:58.932Z,8.10
2018-12-21T04:06:58.940Z,7.80
2018-12-21T04:07:58.911Z,8.70
2018-12-21T04:08:58.896Z,8.20
2018-12-21T04:09:58.886Z,8.00
2018-12-21T04:10:58.875Z,8.50
2018-12-21T04:11:58.882Z,9.10
2018-12-21T04:12:58.861Z,8.50
2018-12-21T04:13:58.860Z,8.00
2018-12-21T04:14:58.841Z,8.70
2018-12-21T04:15:58.841Z,8.70
2018-12-21T04:16:58.842Z,8.30
2018-12-21T04:17:58.796Z,8.30
2018-12-21T04:18:58.793Z,8.80
2018-12-21T04:19:58.785Z,8.70
2018-12-21T04:20:58.774Z,8.60
2018-12-21T04:21:58.781Z,8.90
2018-12-21T04:22:58.746Z,8.60
2018-12-21T04:23:58.737Z,8.20
2018-12-21T04:24:58.728Z,8.80
2018-12-21T04:25:58.710Z,8.60
2018-12-21T04:26:58.721Z,8.20
2018-12-21T04:27:58.707Z,8.80
2018-12-21T04:28:58.684Z,8.60
2018-12-21T04:29:58.672Z,8.60
2018-12-21T04:30:58.674Z,9.20
2018-12-21T04:31:58.674Z,8.90
2018-12-21T04:32:58.646Z,8.30
2018-12-21T04:33:58.648Z,8.90
2018-12-21T04:34:58.620Z,8.80
2018-12-21T04:35:58.610Z,8.80
2018-12-21T04:36:58.616Z,9.50
2018-12-21T04:37:58.593Z,8.60
2018-12-21T04:38:58.579Z,9.10
2018-12-21T04:39:58.584Z,9.30
2018-12-21T04:40:58.560Z,9.40
2018-12-21T04:41:58.574Z,9.10
2018-12-21T04:42:58.544Z,8.40
2018-12-21T04:43:58.525Z,9.20
2018-12-21T04:44:58.512Z,9.60
2018-12-21T04:45:58.501Z,9.40
2018-12-21T04:46:58.490Z,10.30
2018-12-21T04:47:58.502Z,10.80
2018-12-21T04:48:58.481Z,9.80
2018-12-21T04:49:58.460Z,12.80
2018-12-21T04:50:58.458Z,13.80
2018-12-21T04:51:58.439Z,11.00
2018-12-21T04:52:58.451Z,10.80
2018-12-21T04:53:58.421Z,10.30
2018-12-21T04:54:58.408Z,11.20
2018-12-21T04:55:58.398Z,10.50
2018-12-21T04:56:58.389Z,11.30
2018-12-21T04:57:58.414Z,11.50
2018-12-21T04:58:58.367Z,11.50
2018-12-21T04:59:58.368Z,11.80
2018-12-21T05:00:58.342Z,12.30
2018-12-21T05:01:58.335Z,11.90
2018-12-21T05:02:58.341Z,11.40
2018-12-21T05:03:58.315Z,11.30
2018-12-21T05:04:58.311Z,11.60
2018-12-21T05:05:58.294Z,12.10
2018-12-21T05:06:58.278Z,11.90
2018-12-21T05:07:58.288Z,12.50
2018-12-21T05:08:58.281Z,11.60
2018-12-21T05:09:58.250Z,11.90
2018-12-21T05:10:58.239Z,12.80
2018-12-21T05:11:58.225Z,12.30
2018-12-21T05:12:58.232Z,11.90
2018-12-21T05:13:58.210Z,11.70
2018-12-21T05:14:58.192Z,12.20
2018-12-21T05:15:58.178Z,11.60
2018-12-21T05:16:58.172Z,11.40
2018-12-21T05:17:58.179Z,11.70
2018-12-21T05:18:58.152Z,12.20
2018-12-21T05:19:58.144Z,11.60
2018-12-21T05:20:58.132Z,11.60
2018-12-21T05:21:58.158Z,12.20
2018-12-21T05:22:58.124Z,11.80
2018-12-21T05:23:58.104Z,11.10
2018-12-21T05:24:58.090Z,11.30
2018-12-21T05:25:58.079Z,12.30
2018-12-21T05:26:58.074Z,11.60
2018-12-21T05:27:58.100Z,11.10
2018-12-21T05:28:58.052Z,12.50
2018-12-21T05:29:58.029Z,11.50
2018-12-21T05:30:58.027Z,11.00
2018-12-21T05:31:58.020Z,11.60
2018-12-21T05:32:57.998Z,11.80
2018-12-21T05:33:58.007Z,11.50
2018-12-21T05:34:57.985Z,11.40
2018-12-21T05:35:57.967Z,11.80
2018-12-21T05:36:57.965Z,11.80
2018-12-21T05:37:57.955Z,11.30
2018-12-21T05:38:57.949Z,11.90
2018-12-21T05:39:57.937Z,12.40
2018-12-21T05:40:57.917Z,12.20
2018-12-21T05:41:57.910Z,11.80
2018-12-21T05:42:57.902Z,11.50
2018-12-21T05:43:57.907Z,10.40
2018-12-21T05:44:57.871Z,10.60
2018-12-21T05:45:57.867Z,10.90
2018-12-21T05:46:57.854Z,10.20
2018-12-21T05:47:57.844Z,11.40
2018-12-21T05:48:57.849Z,10.80
2018-12-21T05:49:57.823Z,10.90
2018-12-21T05:50:57.807Z,10.70
2018-12-21T05:51:57.805Z,10.90
2018-12-21T05:53:00.909Z,10.80
2018-12-21T05:53:57.799Z,11.00
2018-12-21T05:54:57.767Z,11.00
2018-12-21T05:55:57.757Z,10.50
2018-12-21T05:56:57.754Z,12.30
2018-12-21T05:57:57.748Z,11.00
2018-12-21T05:58:57.754Z,10.60
2018-12-21T05:59:57.718Z,10.50
2018-12-21T06:00:57.709Z,11.00
2018-12-21T06:01:57.692Z,10.40
2018-12-21T06:02:57.685Z,10.30
2018-12-21T06:03:57.692Z,10.50
2018-12-21T06:04:57.657Z,11.20
2018-12-21T06:05:57.657Z,10.80
2018-12-21T06:06:57.646Z,10.80
2018-12-21T06:07:57.629Z,10.50
2018-12-21T06:08:57.643Z,10.60
2018-12-21T06:09:57.612Z,10.20
2018-12-21T06:10:57.596Z,10.80
2018-12-21T06:11:57.596Z,10.60
2018-12-21T06:12:57.588Z,10.50
2018-12-21T06:13:57.569Z,11.10
2018-12-21T06:14:57.598Z,10.70
2018-12-21T06:15:57.546Z,10.70
2018-12-21T06:16:57.534Z,10.50
2018-12-21T06:17:57.532Z,11.30
2018-12-21T06:18:57.527Z,12.40
2018-12-21T06:19:57.531Z,13.70
2018-12-21T06:20:57.494Z,11.70
2018-12-21T06:21:57.479Z,11.20
2018-12-21T06:22:57.472Z,11.00
2018-12-21T06:23:57.468Z,10.70
2018-12-21T06:24:57.476Z,11.50
2018-12-21T06:25:57.439Z,10.50
2018-12-21T06:26:57.437Z,11.60
2018-12-21T06:27:57.418Z,11.80
2018-12-21T06:28:57.414Z,11.70
2018-12-21T06:29:57.540Z,11.50
2018-12-21T06:30:57.384Z,11.70
2018-12-21T06:31:57.380Z,11.40
2018-12-21T06:32:57.363Z,13.70
2018-12-21T06:33:57.361Z,11.70
2018-12-21T06:34:57.370Z,11.20
2018-12-21T06:35:57.335Z,10.40
2018-12-21T06:36:57.325Z,11.60
2018-12-21T06:37:57.315Z,12.10
2018-12-21T06:38:57.312Z,11.70
2018-12-21T06:39:57.305Z,12.10
2018-12-21T06:40:57.280Z,12.00
2018-12-21T06:41:57.280Z,12.10
2018-12-21T06:42:57.266Z,11.80
2018-12-21T06:43:57.253Z,11.70
2018-12-21T06:44:57.271Z,12.10
2018-12-21T06:45:57.231Z,11.70
2018-12-21T06:46:57.221Z,12.40
2018-12-21T06:47:57.215Z,11.60
2018-12-21T06:48:57.197Z,12.70
2018-12-21T06:49:57.204Z,12.00
2018-12-21T06:50:57.174Z,12.50
2018-12-21T06:51:57.166Z,12.00
2018-12-21T06:52:57.159Z,12.30
2018-12-21T06:53:57.142Z,12.70
2018-12-21T06:54:57.150Z,12.00
2018-12-21T06:55:57.126Z,11.00
2018-12-21T06:56:57.113Z,12.00
2018-12-21T06:57:57.102Z,11.50
2018-12-21T06:58:57.095Z,11.80
2018-12-21T06:59:57.101Z,12.10
2018-12-21T07:00:57.067Z,11.60
2018-12-21T07:01:57.058Z,11.20
2018-12-21T07:02:57.110Z,11.10
2018-12-21T07:03:57.039Z,10.60
2018-12-21T07:04:57.055Z,11.50
2018-12-21T07:05:57.014Z,10.70
2018-12-21T07:06:57.005Z,10.40
2018-12-21T07:07:56.993Z,10.40
2018-12-21T07:08:56.990Z,10.90
2018-12-21T07:09:56.969Z,11.40
2018-12-21T07:10:56.973Z,11.10
2018-12-21T07:11:56.947Z,11.50
2018-12-21T07:12:56.941Z,11.50
2018-12-21T07:13:56.935Z,10.40
2018-12-21T07:14:56.925Z,11.20
2018-12-21T07:15:57.018Z,11.60
2018-12-21T07:16:56.903Z,11.50
2018-12-21T07:17:56.890Z,10.60
2018-12-21T07:18:56.879Z,10.90
2018-12-21T07:19:56.870Z,10.70
2018-12-21T07:20:56.873Z,9.50
2018-12-21T07:21:56.844Z,8.90
2018-12-21T07:22:56.841Z,9.80
2018-12-21T07:23:56.828Z,10.80
2018-12-21T07:24:56.813Z,9.80
2018-12-21T07:25:56.813Z,8.90
2018-12-21T07:26:56.794Z,10.50
2018-12-21T07:27:56.787Z,9.20
2018-12-21T07:28:56.778Z,10.00
2018-12-21T07:29:56.762Z,10.20
2018-12-21T07:30:56.763Z,9.60
2018-12-21T07:31:56.735Z,10.00
2018-12-21T07:32:56.727Z,10.00
2018-12-21T07:33:56.728Z,9.40
2018-12-21T07:34:56.721Z,10.50
2018-12-21T07:35:56.716Z,10.20
2018-12-21T07:36:56.685Z,10.30
2018-12-21T07:37:56.678Z,9.80
2018-12-21T07:38:56.667Z,10.20
2018-12-21T07:39:56.665Z,10.50
2018-12-21T07:40:57.853Z,9.00
2018-12-21T07:41:56.635Z,11.00
2018-12-21T07:42:56.617Z,13.40
2018-12-21T07:43:56.615Z,11.50
2018-12-21T07:44:56.609Z,14.30
2018-12-21T07:45:56.596Z,12.90
2018-12-21T07:46:56.605Z,11.30
2018-12-21T07:47:56.579Z,11.80
2018-12-21T07:48:56.562Z,10.90
2018-12-21T07:49:56.557Z,10.60
2018-12-21T07:50:56.533Z,11.40
2018-12-21T07:51:56.545Z,10.00
2018-12-21T07:52:56.531Z,15.40
2018-12-21T07:53:56.507Z,9.70
2018-12-21T07:54:56.495Z,10.40
2018-12-21T07:55:56.487Z,9.00
2018-12-21T07:56:56.498Z,9.70
2018-12-21T07:57:58.576Z,8.60
2018-12-21T07:58:57.339Z,9.00
2018-12-21T07:59:56.441Z,9.00
2018-12-21T08:00:56.427Z,9.20
2018-12-21T08:01:56.437Z,8.40
2018-12-21T08:02:56.412Z,7.90
2018-12-21T08:03:56.412Z,9.20
2018-12-21T08:04:56.387Z,8.80
2018-12-21T08:05:56.378Z,8.00
2018-12-21T08:06:56.405Z,8.00
2018-12-21T08:07:56.354Z,8.30
2018-12-21T08:08:56.362Z,7.90
2018-12-21T08:09:56.347Z,7.30
2018-12-21T08:10:56.351Z,6.90
2018-12-21T08:11:56.341Z,7.20
2018-12-21T08:12:56.300Z,7.30
2018-12-21T08:13:56.294Z,6.80
2018-12-21T08:14:56.288Z,7.40
2018-12-21T08:15:56.270Z,7.60
2018-12-21T08:16:56.292Z,6.80
2018-12-21T08:17:56.318Z,7.70
2018-12-21T08:18:56.238Z,7.10
2018-12-21T08:19:56.230Z,7.20
2018-12-21T08:20:56.224Z,7.30
2018-12-21T08:21:56.229Z,6.70
2018-12-21T08:22:56.192Z,7.40
2018-12-21T08:23:56.183Z,7.20
2018-12-21T08:24:56.178Z,7.10
2018-12-21T08:25:56.168Z,7.60
2018-12-21T08:26:56.183Z,7.20
2018-12-21T08:27:56.145Z,7.10
2018-12-21T08:28:56.138Z,6.10
2018-12-21T08:29:56.126Z,6.40
2018-12-21T08:30:56.131Z,6.30
2018-12-21T08:31:56.126Z,6.80
2018-12-21T08:32:56.094Z,7.20
2018-12-21T08:33:56.080Z,7.20
2018-12-21T08:34:56.065Z,7.30
2018-12-21T08:35:56.065Z,7.20
2018-12-21T08:36:56.052Z,6.50
2018-12-21T08:37:56.068Z,6.50
2018-12-21T08:38:56.032Z,6.30
2018-12-21T08:39:56.024Z,6.30
2018-12-21T08:40:56.006Z,5.60
2018-12-21T08:41:55.993Z,6.40
2018-12-21T08:42:56.002Z,6.90
2018-12-21T08:43:55.981Z,6.50
2018-12-21T08:44:55.968Z,7.30
2018-12-21T08:45:55.963Z,6.70
2018-12-21T08:46:55.937Z,6.60
2018-12-21T08:47:55.947Z,7.20
2018-12-21T08:48:55.925Z,6.20
2018-12-21T08:49:55.917Z,6.60
2018-12-21T08:50:55.913Z,6.80
2018-12-21T08:51:55.887Z,6.90
2018-12-21T08:52:55.906Z,6.70
2018-12-21T08:53:55.867Z,6.60
2018-12-21T08:54:56.366Z,6.10
2018-12-21T08:55:55.849Z,6.20
2018-12-21T08:56:55.835Z,9.10
2018-12-21T08:57:55.843Z,8.60
2018-12-21T08:58:55.821Z,13.70
2018-12-21T08:59:55.800Z,7.90
2018-12-21T09:00:55.796Z,7.20
2018-12-21T09:01:55.788Z,7.00
2018-12-21T09:02:55.807Z,7.10
2018-12-21T09:03:55.761Z,6.50
2018-12-21T09:04:55.745Z,6.80
2018-12-21T09:05:55.758Z,6.50
2018-12-21T09:06:55.729Z,6.80
2018-12-21T09:07:55.755Z,7.30
2018-12-21T09:08:55.723Z,7.10
2018-12-21T09:09:55.700Z,6.20
2018-12-21T09:10:55.683Z,6.40
2018-12-21T09:11:55.681Z,6.60
2018-12-21T09:12:55.698Z,6.30
2018-12-21T09:13:55.662Z,6.30
2018-12-21T09:14:55.647Z,6.30
2018-12-21T09:15:55.636Z,6.00
2018-12-21T09:16:55.618Z,6.30
2018-12-21T09:17:55.629Z,6.10
2018-12-21T09:18:55.622Z,6.10
2018-12-21T09:19:55.598Z,5.80
2018-12-21T09:20:55.585Z,6.00
2018-12-21T09:21:55.574Z,6.10
2018-12-21T09:22:55.560Z,5.70
2018-12-21T09:24:01.214Z,5.60
2018-12-21T09:24:56.554Z,6.00
2018-12-21T09:25:55.539Z,6.00
2018-12-21T09:26:55.517Z,6.20
2018-12-21T09:27:55.506Z,5.80
2018-12-21T09:28:55.916Z,5.20
2018-12-21T09:29:55.484Z,5.20
2018-12-21T09:30:55.482Z,6.30
2018-12-21T09:31:55.482Z,5.60
2018-12-21T09:32:55.454Z,5.40
2018-12-21T09:33:55.459Z,5.30
2018-12-21T09:34:55.438Z,5.60
2018-12-21T09:35:55.418Z,5.40
2018-12-21T09:36:55.425Z,5.00
2018-12-21T09:37:55.404Z,5.20
2018-12-21T09:38:55.404Z,4.30
2018-12-21T09:39:55.377Z,4.90
2018-12-21T09:40:55.422Z,5.10
2018-12-21T09:41:55.356Z,4.80
2018-12-21T09:42:55.385Z,4.20
2018-12-21T09:43:55.362Z,4.70
2018-12-21T09:44:55.332Z,4.20
2018-12-21T09:45:55.315Z,4.50
2018-12-21T09:46:55.329Z,4.50
2018-12-21T09:47:55.297Z,4.50
2018-12-21T09:48:55.302Z,4.70
2018-12-21T09:49:55.272Z,4.50
2018-12-21T09:50:55.264Z,4.90
2018-12-21T09:51:55.250Z,4.30
2018-12-21T09:52:55.241Z,4.20
2018-12-21T09:53:55.242Z,4.40
2018-12-21T09:54:55.228Z,4.40
2018-12-21T09:55:55.205Z,3.80
2018-12-21T09:56:55.204Z,4.20
2018-12-21T09:57:55.188Z,4.20
2018-12-21T09:58:55.208Z,4.10
2018-12-21T09:59:55.173Z,4.10
2018-12-21T10:00:55.150Z,4.40
2018-12-21T10:01:55.152Z,3.80
2018-12-21T10:02:55.132Z,4.30
2018-12-21T10:03:55.155Z,4.40
2018-12-21T10:04:55.114Z,4.00
2018-12-21T10:05:55.114Z,3.90
2018-12-21T10:06:55.086Z,4.10
2018-12-21T10:07:55.080Z,4.30
2018-12-21T10:08:55.094Z,3.90
2018-12-21T10:09:55.066Z,3.80
2018-12-21T10:10:55.045Z,3.70
2018-12-21T10:11:55.045Z,3.40
2018-12-21T10:12:55.026Z,3.70
2018-12-21T10:13:55.016Z,3.90
2018-12-21T10:14:55.024Z,3.50
2018-12-21T10:15:55.006Z,3.40
2018-12-21T10:16:54.989Z,3.50
2018-12-21T10:17:54.980Z,3.30
2018-12-21T10:18:54.967Z,4.80
2018-12-21T10:19:54.976Z,3.90
2018-12-21T10:20:54.937Z,5.00
2018-12-21T10:21:54.939Z,4.10
2018-12-21T10:22:54.928Z,4.00
2018-12-21T10:23:54.915Z,4.30
2018-12-21T10:24:54.933Z,4.10
2018-12-21T10:25:54.886Z,4.90
2018-12-21T10:26:54.874Z,4.50
2018-12-21T10:27:54.861Z,4.80
2018-12-21T10:28:54.860Z,4.00
2018-12-21T10:29:54.867Z,3.20
2018-12-21T10:30:54.830Z,4.10
2018-12-21T10:31:54.821Z,3.40
2018-12-21T10:32:54.810Z,3.20
2018-12-21T10:33:54.840Z,3.40
2018-12-21T10:34:54.812Z,3.30
2018-12-21T10:35:54.806Z,3.30
2018-12-21T10:36:54.769Z,3.60
2018-12-21T10:37:54.759Z,3.60
2018-12-21T10:38:54.746Z,3.90
2018-12-21T10:39:54.761Z,3.30
2018-12-21T10:40:54.740Z,3.90
2018-12-21T10:41:54.714Z,3.20
2018-12-21T10:42:54.712Z,3.10
2018-12-21T10:43:54.690Z,3.20
2018-12-21T10:44:54.716Z,3.00
2018-12-21T10:45:54.675Z,3.40
2018-12-21T10:46:54.673Z,3.30
2018-12-21T10:47:54.646Z,3.10
2018-12-21T10:48:54.640Z,3.40
2018-12-21T10:49:54.702Z,3.70
2018-12-21T10:50:54.618Z,3.30
2018-12-21T10:51:54.606Z,3.30
2018-12-21T10:52:54.596Z,3.40
2018-12-21T10:53:54.582Z,3.20
2018-12-21T10:54:54.626Z,3.80
2018-12-21T10:55:54.572Z,3.30
2018-12-21T10:56:54.557Z,3.10
2018-12-21T10:57:54.542Z,3.30
2018-12-21T10:58:54.532Z,3.10
2018-12-21T10:59:54.520Z,2.80
2018-12-21T11:00:54.528Z,2.60
2018-12-21T11:01:54.509Z,3.30
2018-12-21T11:02:54.489Z,2.90
2018-12-21T11:03:54.492Z,3.40
2018-12-21T11:04:54.466Z,3.30
2018-12-21T11:05:54.488Z,3.90
2018-12-21T11:06:54.446Z,4.30
2018-12-21T11:07:54.451Z,3.20
2018-12-21T11:08:54.430Z,2.90
2018-12-21T11:09:54.424Z,3.30
2018-12-21T11:10:54.451Z,4.00
2018-12-21T11:11:54.511Z,3.40
2018-12-21T11:12:54.378Z,3.60
2018-12-21T11:13:54.366Z,3.70
2018-12-21T11:14:54.368Z,4.10
2018-12-21T11:15:54.415Z,4.60
2018-12-21T11:16:54.356Z,4.60
2018-12-21T11:17:54.328Z,4.30
2018-12-21T11:18:54.348Z,4.70
2018-12-21T11:19:54.310Z,4.10
2018-12-21T11:20:54.314Z,4.00
2018-12-21T11:21:54.292Z,3.80
2018-12-21T11:22:54.272Z,4.20
2018-12-21T11:23:54.264Z,4.20
2018-12-21T11:24:54.263Z,3.60
2018-12-21T11:25:54.260Z,3.60
2018-12-21T11:26:54.241Z,4.00
2018-12-21T11:27:54.230Z,4.60
2018-12-21T11:28:54.214Z,3.40
2018-12-21T11:29:54.197Z,3.90
2018-12-21T11:30:54.210Z,3.50
2018-12-21T11:31:54.179Z,3.90
2018-12-21T11:32:54.179Z,4.20
2018-12-21T11:33:54.172Z,3.80
2018-12-21T11:34:55.019Z,3.50
2018-12-21T11:35:54.421Z,3.40
2018-12-21T11:36:54.133Z,3.50
2018-12-21T11:37:54.114Z,3.30
2018-12-21T11:38:54.116Z,3.20
2018-12-21T11:39:54.103Z,3.50
2018-12-21T11:40:54.101Z,3.00
2018-12-21T11:41:54.079Z,2.80
2018-12-21T11:42:54.069Z,3.40
2018-12-21T11:43:54.056Z,4.00
2018-12-21T11:44:54.060Z,4.20
2018-12-21T11:45:54.043Z,4.40
2018-12-21T11:46:54.014Z,3.90
2018-12-21T11:47:54.010Z,3.80
2018-12-21T11:48:53.997Z,3.60
2018-12-21T11:49:53.989Z,3.60
2018-12-21T11:50:53.992Z,3.40
2018-12-21T11:51:53.984Z,4.20
2018-12-21T11:52:53.951Z,3.80
2018-12-21T11:53:53.945Z,4.00
2018-12-21T11:54:53.943Z,4.30
2018-12-21T11:55:53.947Z,4.20
2018-12-21T11:56:53.913Z,4.00
2018-12-21T11:57:53.933Z,3.60
2018-12-21T11:58:53.891Z,4.60
2018-12-21T11:59:53.877Z,3.40
2018-12-21T12:00:53.884Z,4.50
2018-12-21T12:01:53.872Z,4.70
2018-12-21T12:02:53.847Z,3.70
2018-12-21T12:03:53.835Z,4.10
2018-12-21T12:04:53.835Z,3.60
2018-12-21T12:05:53.831Z,3.50
2018-12-21T12:06:53.805Z,4.00
2018-12-21T12:07:53.798Z,4.20
2018-12-21T12:08:53.795Z,3.40
2018-12-21T12:09:53.767Z,3.60
2018-12-21T12:10:54.271Z,3.50
2018-12-21T12:11:53.758Z,4.10
2018-12-21T12:12:53.744Z,3.40
2018-12-21T12:13:53.737Z,3.50
2018-12-21T12:14:53.717Z,3.80
2018-12-21T12:15:53.740Z,3.50
2018-12-21T12:16:53.714Z,3.60
2018-12-21T12:17:53.688Z,3.10
2018-12-21T12:18:53.691Z,3.40
2018-12-21T12:19:53.677Z,3.30
2018-12-21T12:20:53.668Z,3.40
2018-12-21T12:21:53.675Z,3.20
2018-12-21T12:22:53.735Z,3.70
2018-12-21T12:23:53.629Z,3.20
2018-12-21T12:24:55.418Z,3.40
2018-12-21T12:25:53.599Z,3.10
2018-12-21T12:26:53.608Z,3.00
2018-12-21T12:27:53.584Z,2.80
2018-12-21T12:28:53.565Z,3.60
2018-12-21T12:29:53.566Z,3.40
2018-12-21T12:30:53.600Z,3.30
2018-12-21T12:31:53.560Z,3.60
2018-12-21T12:32:53.525Z,3.60
2018-12-21T12:33:53.530Z,3.50
2018-12-21T12:34:53.501Z,3.40
2018-12-21T12:35:53.497Z,3.30
2018-12-21T12:36:53.501Z,3.30
2018-12-21T12:37:53.478Z,3.60
2018-12-21T12:38:53.486Z,3.60
2018-12-21T12:39:53.447Z,3.10
2018-12-21T12:40:53.440Z,2.90
2018-12-21T12:41:53.447Z,3.50
2018-12-21T12:42:53.418Z,3.40
2018-12-21T12:43:53.405Z,3.90
2018-12-21T12:44:53.397Z,3.20
2018-12-21T12:45:53.383Z,3.20
2018-12-21T12:46:53.405Z,3.20
2018-12-21T12:47:53.372Z,3.40
2018-12-21T12:48:53.354Z,3.10
2018-12-21T12:49:53.350Z,3.70
2018-12-21T12:50:53.336Z,3.10
2018-12-21T12:51:53.351Z,3.20
2018-12-21T12:52:53.314Z,3.40
2018-12-21T12:53:53.300Z,3.30
2018-12-21T12:55:02.317Z,3.30
2018-12-21T12:55:54.279Z,3.00
2018-12-21T12:56:53.278Z,4.50
2018-12-21T12:57:53.254Z,5.70
2018-12-21T12:58:53.258Z,5.20
2018-12-21T12:59:53.238Z,4.50
2018-12-21T13:00:53.235Z,4.20
2018-12-21T13:01:53.240Z,4.90
2018-12-21T13:02:53.205Z,4.80
2018-12-21T13:03:53.200Z,4.00
2018-12-21T13:04:53.192Z,3.70
2018-12-21T13:05:53.168Z,3.80
2018-12-21T13:06:53.187Z,4.10
2018-12-21T13:07:53.177Z,3.80